createdAt,value
2022-09-26T00:01:21.453Z,1.40
2022-09-26T00:03:51.864Z,1.30
2022-09-26T00:06:20.043Z,1.40
2022-09-26T00:08:48.933Z,1.27
2022-09-26T00:11:19.732Z,1.40
2022-09-26T00:13:47.182Z,1.40
2022-09-26T00:16:15.729Z,1.08
2022-09-26T00:18:43.070Z,0.98
2022-09-26T00:21:14.822Z,0.88
2022-09-26T00:23:42.588Z,1.20
2022-09-26T00:26:10.776Z,0.90
2022-09-26T00:28:38.188Z,0.70
2022-09-26T00:31:07.226Z,0.90
2022-09-26T00:33:34.382Z,2.47
2022-09-26T00:36:01.647Z,2.95
2022-09-26T00:38:28.671Z,2.95
2022-09-26T00:40:55.880Z,1.85
2022-09-26T00:43:46.631Z,1.40
2022-09-26T00:46:13.557Z,1.20
2022-09-26T00:48:42.201Z,0.98
2022-09-26T00:51:10.201Z,1.00
2022-09-26T00:53:42.684Z,0.98
2022-09-26T00:56:16.891Z,0.85
2022-09-26T00:58:50.224Z,1.30
2022-09-26T01:01:18.601Z,2.20
2022-09-26T01:03:48.653Z,2.65
2022-09-26T01:06:16.324Z,1.90
2022-09-26T01:08:50.388Z,2.00
2022-09-26T01:11:17.782Z,1.88
2022-09-26T01:13:45.492Z,1.75
2022-09-26T01:16:12.591Z,1.70
2022-09-26T01:18:40.062Z,1.60
2022-09-26T01:21:35.389Z,1.30
2022-09-26T01:24:35.983Z,1.40
2022-09-26T01:27:24.658Z,1.40
2022-09-26T01:30:11.435Z,1.83
2022-09-26T01:33:02.162Z,1.92
2022-09-26T01:35:53.832Z,1.73
2022-09-26T01:38:30.499Z,1.23
2022-09-26T01:41:18.887Z,1.55
2022-09-26T01:43:46.071Z,1.90
2022-09-26T01:46:41.727Z,1.65
2022-09-26T01:49:37.800Z,1.48
2022-09-26T01:52:24.949Z,1.60
2022-09-26T01:54:57.228Z,1.27
2022-09-26T01:57:31.176Z,1.48
2022-09-26T02:00:02.437Z,1.50
2022-09-26T02:02:36.428Z,1.40
2022-09-26T02:05:25.434Z,1.20
2022-09-26T02:08:17.901Z,1.17
2022-09-26T02:10:49.745Z,1.13
2022-09-26T02:13:39.488Z,1.10
2022-09-26T02:16:10.134Z,1.00
2022-09-26T02:19:00.500Z,1.48
2022-09-26T02:21:27.647Z,1.13
2022-09-26T02:23:55.231Z,1.15
2022-09-26T02:26:23.661Z,1.38
2022-09-26T02:28:51.108Z,1.60
2022-09-26T02:31:22.986Z,1.50
2022-09-26T02:33:51.473Z,1.60
2022-09-26T02:36:22.507Z,2.20
2022-09-26T02:38:50.025Z,1.80
2022-09-26T02:41:35.401Z,1.58
2022-09-26T02:44:02.391Z,1.40
2022-09-26T02:46:41.387Z,1.40
2022-09-26T02:49:26.969Z,1.02
2022-09-26T02:51:59.804Z,1.25
2022-09-26T02:54:45.216Z,1.17
2022-09-26T02:57:26.954Z,1.42
2022-09-26T03:00:19.334Z,1.25
2022-09-26T03:03:19.999Z,1.20
2022-09-26T03:05:49.488Z,1.95
2022-09-26T03:08:20.866Z,2.58
2022-09-26T03:10:49.755Z,2.60
2022-09-26T03:13:18.797Z,2.15
2022-09-26T03:15:53.915Z,2.55
2022-09-26T03:18:24.922Z,1.83
2022-09-26T03:20:54.928Z,1.60
2022-09-26T03:23:26.706Z,1.95
2022-09-26T03:26:12.087Z,1.60
2022-09-26T03:28:39.120Z,1.35
2022-09-26T03:31:07.565Z,1.83
2022-09-26T03:33:34.631Z,1.80
2022-09-26T03:36:06.648Z,1.77
2022-09-26T03:38:33.632Z,2.10
2022-09-26T03:41:00.793Z,2.28
2022-09-26T03:43:28.050Z,2.38
2022-09-26T03:45:55.429Z,2.50
2022-09-26T03:48:22.461Z,3.38
2022-09-26T03:50:49.553Z,2.47
2022-09-26T03:53:16.593Z,3.05
2022-09-26T03:55:43.533Z,2.50
2022-09-26T03:58:10.660Z,2.30
2022-09-26T04:00:39.656Z,1.88
2022-09-26T04:03:06.918Z,1.95
2022-09-26T04:05:33.978Z,2.17
2022-09-26T04:08:05.981Z,2.15
2022-09-26T04:10:33.510Z,1.77
2022-09-26T04:13:00.576Z,1.60
2022-09-26T04:15:28.810Z,1.73
2022-09-26T04:17:56.032Z,1.50
2022-09-26T04:20:23.019Z,1.30
2022-09-26T04:22:50.003Z,1.20
2022-09-26T04:25:17.055Z,1.30
2022-09-26T04:27:44.065Z,1.10
2022-09-26T04:30:12.521Z,1.20
2022-09-26T04:32:39.510Z,1.58
2022-09-26T04:35:06.990Z,1.30
2022-09-26T04:37:37.311Z,1.40
2022-09-26T04:40:05.036Z,1.20
2022-09-26T04:42:37.244Z,0.93
2022-09-26T04:45:05.341Z,1.00
2022-09-26T04:47:32.833Z,1.50
2022-09-26T04:49:59.946Z,0.80
2022-09-26T04:52:26.975Z,0.85
2022-09-26T04:54:53.996Z,1.02
2022-09-26T04:57:21.367Z,1.30
2022-09-26T04:59:48.353Z,1.25
2022-09-26T05:02:15.374Z,0.73
2022-09-26T05:04:42.425Z,0.95
2022-09-26T05:07:09.387Z,1.35
2022-09-26T05:09:36.545Z,1.08
2022-09-26T05:12:03.873Z,1.27
2022-09-26T05:14:30.861Z,1.20
2022-09-26T05:16:57.826Z,1.13
2022-09-26T05:19:24.887Z,1.10
2022-09-26T05:21:51.836Z,1.17
2022-09-26T05:24:37.433Z,1.10
2022-09-26T05:27:07.196Z,0.90
2022-09-26T05:29:34.251Z,1.20
2022-09-26T05:32:01.795Z,1.05
2022-09-26T05:34:28.918Z,1.25
2022-09-26T05:36:56.790Z,1.17
2022-09-26T05:39:42.839Z,1.42
2022-09-26T05:42:09.996Z,0.90
2022-09-26T05:44:36.943Z,1.10
2022-09-26T05:47:04.102Z,1.05
2022-09-26T05:49:33.006Z,2.17
2022-09-26T05:52:00.143Z,2.00
2022-09-26T05:54:27.938Z,2.80
2022-09-26T05:56:55.066Z,2.40
2022-09-26T05:59:22.316Z,1.92
2022-09-26T06:01:49.372Z,2.28
2022-09-26T06:04:16.440Z,2.03
2022-09-26T06:06:44.508Z,2.50
2022-09-26T06:09:11.639Z,1.58
2022-09-26T06:11:38.701Z,2.13
2022-09-26T06:14:07.114Z,1.80
2022-09-26T06:16:34.634Z,1.70
2022-09-26T06:19:02.852Z,1.70
2022-09-26T06:21:30.154Z,1.58
2022-09-26T06:23:57.256Z,1.70
2022-09-26T06:26:26.404Z,1.90
2022-09-26T06:29:00.975Z,1.42
2022-09-26T06:31:29.014Z,1.90
2022-09-26T06:33:56.709Z,1.63
2022-09-26T06:36:24.187Z,1.33
2022-09-26T06:38:51.768Z,1.55
2022-09-26T06:41:20.002Z,2.38
2022-09-26T06:43:47.854Z,2.50
2022-09-26T06:46:15.631Z,3.03
2022-09-26T06:48:42.930Z,2.08
2022-09-26T06:51:13.634Z,2.20
2022-09-26T06:53:40.932Z,2.38
2022-09-26T06:56:08.441Z,1.65
2022-09-26T06:58:35.501Z,1.38
2022-09-26T07:01:03.159Z,1.70
2022-09-26T07:03:30.350Z,1.40
2022-09-26T07:05:58.368Z,1.58
2022-09-26T07:08:50.139Z,1.52
2022-09-26T07:14:02.365Z,1.20
2022-09-26T07:16:29.828Z,1.40
2022-09-26T07:18:57.501Z,1.55
2022-09-26T07:21:24.904Z,1.80
2022-09-26T07:24:05.382Z,1.92
2022-09-26T07:26:32.450Z,2.40
2022-09-26T07:28:59.384Z,2.28
2022-09-26T07:31:27.002Z,1.50
2022-09-26T07:33:54.305Z,2.60
2022-09-26T07:36:21.431Z,2.55
2022-09-26T07:38:48.830Z,2.58
2022-09-26T07:41:16.884Z,2.78
2022-09-26T07:46:49.566Z,2.90
2022-09-26T07:49:35.186Z,2.47
2022-09-26T07:52:02.371Z,2.78
2022-09-26T07:54:29.420Z,2.85
2022-09-26T07:56:56.410Z,2.08
2022-09-26T07:59:23.488Z,2.05
2022-09-26T08:01:53.196Z,2.58
2022-09-26T08:04:20.585Z,2.50
2022-09-26T08:06:47.607Z,2.95
2022-09-26T08:09:15.398Z,2.75
2022-09-26T08:11:42.876Z,3.80
2022-09-26T08:14:10.213Z,3.17
2022-09-26T08:16:41.765Z,3.35
2022-09-26T08:19:12.980Z,2.60
2022-09-26T08:21:39.957Z,3.10
2022-09-26T08:24:07.112Z,2.63
2022-09-26T08:26:34.151Z,3.10
2022-09-26T08:29:02.366Z,2.92
2022-09-26T08:31:29.493Z,2.42
2022-09-26T08:33:56.972Z,2.22
2022-09-26T08:36:23.916Z,2.40
2022-09-26T08:38:51.111Z,2.25
2022-09-26T08:41:47.726Z,2.00
2022-09-26T08:44:44.301Z,2.30
2022-09-26T08:47:30.131Z,2.25
2022-09-26T08:50:15.120Z,2.22
2022-09-26T08:52:57.166Z,2.08
2022-09-26T08:55:31.821Z,2.03
2022-09-26T08:58:01.789Z,2.25
2022-09-26T09:00:32.905Z,2.28
2022-09-26T09:03:10.554Z,2.30
2022-09-26T09:05:42.398Z,2.30
2022-09-26T09:08:22.821Z,1.90
2022-09-26T09:11:16.909Z,1.63
2022-09-26T09:14:11.377Z,1.55
2022-09-26T09:16:45.153Z,1.73
2022-09-26T09:22:25.615Z,1.40
2022-09-26T09:25:24.540Z,4.32
2022-09-26T09:28:18.287Z,1.23
2022-09-26T09:31:02.528Z,1.77
2022-09-26T09:33:39.804Z,4.25
2022-09-26T09:36:15.483Z,1.65
2022-09-26T09:38:46.246Z,1.90
2022-09-26T09:41:20.184Z,1.63
2022-09-26T09:43:54.811Z,1.90
2022-09-26T09:46:29.442Z,1.60
2022-09-26T09:49:08.966Z,1.42
2022-09-26T09:52:02.525Z,1.60
2022-09-26T09:54:49.234Z,1.50
2022-09-26T09:57:48.358Z,1.95
2022-09-26T10:00:17.189Z,1.50
2022-09-26T10:03:03.120Z,1.40
2022-09-26T10:05:45.552Z,1.40
2022-09-26T10:08:17.107Z,1.27
2022-09-26T10:11:09.480Z,1.42
2022-09-26T10:13:39.233Z,1.27
2022-09-26T10:16:08.505Z,1.30
2022-09-26T10:18:57.162Z,1.60
2022-09-26T10:21:35.828Z,1.38
2022-09-26T10:24:05.162Z,1.55
2022-09-26T10:26:35.866Z,1.60
2022-09-26T10:29:35.676Z,1.10
2022-09-26T10:32:04.452Z,1.35
2022-09-26T10:34:37.243Z,1.60
2022-09-26T10:37:26.149Z,1.27
2022-09-26T10:40:17.303Z,1.80
2022-09-26T10:42:47.453Z,1.13
2022-09-26T10:45:18.238Z,1.38
2022-09-26T10:47:51.124Z,1.45
2022-09-26T10:50:26.724Z,1.40
2022-09-26T10:53:14.581Z,1.48
2022-09-26T10:55:48.470Z,1.48
2022-09-26T10:58:19.982Z,1.60
2022-09-26T11:00:53.372Z,1.77
2022-09-26T11:03:24.739Z,1.63
2022-09-26T11:05:57.795Z,1.80
2022-09-26T11:08:30.445Z,1.80
2022-09-26T11:11:11.549Z,1.70
2022-09-26T11:13:46.698Z,1.58
2022-09-26T11:16:16.503Z,1.10
2022-09-26T11:18:52.262Z,1.30
2022-09-26T11:21:37.951Z,1.20
2022-09-26T11:24:15.164Z,1.70
2022-09-26T11:26:53.629Z,1.60
2022-09-26T11:29:43.025Z,1.80
2022-09-26T11:32:29.366Z,1.98
2022-09-26T11:35:02.671Z,1.70
2022-09-26T11:38:05.831Z,1.40
2022-09-26T11:40:47.889Z,1.20
2022-09-26T11:43:50.255Z,1.40
2022-09-26T11:46:27.695Z,1.30
2022-09-26T11:49:11.469Z,1.83
2022-09-26T11:52:04.183Z,1.40
2022-09-26T11:55:03.331Z,1.40
2022-09-26T11:57:57.843Z,1.50
2022-09-26T12:00:29.346Z,1.80
2022-09-26T12:03:14.972Z,1.10
2022-09-26T12:05:59.926Z,1.80
2022-09-26T12:08:41.096Z,1.40
2022-09-26T12:11:38.293Z,1.50
2022-09-26T12:14:53.800Z,1.48
2022-09-26T12:17:35.490Z,1.38
2022-09-26T12:20:17.315Z,1.58
2022-09-26T12:22:47.345Z,1.20
2022-09-26T12:25:30.735Z,1.30
2022-09-26T12:28:34.573Z,1.50
2022-09-26T12:31:19.795Z,1.50
2022-09-26T12:33:58.817Z,1.60
2022-09-26T12:36:48.192Z,1.77
2022-09-26T12:39:35.869Z,1.60
2022-09-26T12:42:11.379Z,2.00
2022-09-26T12:45:07.760Z,1.40
2022-09-26T12:47:51.022Z,1.50
2022-09-26T12:50:26.322Z,1.00
2022-09-26T12:53:10.469Z,1.08
2022-09-26T12:55:51.955Z,1.10
2022-09-26T12:58:43.995Z,1.00
2022-09-26T13:01:45.296Z,0.82
2022-09-26T13:04:54.772Z,1.10
2022-09-26T13:07:48.272Z,1.00
2022-09-26T13:10:37.053Z,0.90
2022-09-26T13:14:10.957Z,1.38
2022-09-26T13:16:49.367Z,1.35
2022-09-26T13:19:54.543Z,2.05
2022-09-26T13:22:46.188Z,1.50
2022-09-26T13:25:18.040Z,1.70
2022-09-26T13:27:54.836Z,1.52
2022-09-26T13:30:36.026Z,1.60
2022-09-26T13:33:26.014Z,1.60
2022-09-26T13:35:56.670Z,2.00
2022-09-26T13:38:45.420Z,1.67
2022-09-26T13:41:31.184Z,1.38
2022-09-26T13:44:19.959Z,1.60
2022-09-26T13:47:02.162Z,1.30
2022-09-26T13:49:43.175Z,1.60
2022-09-26T13:52:24.456Z,1.10
2022-09-26T13:55:12.889Z,1.45
2022-09-26T13:58:07.279Z,1.40
2022-09-26T14:00:41.159Z,1.40
2022-09-26T14:03:14.285Z,1.60
2022-09-26T14:05:48.055Z,1.70
2022-09-26T14:08:45.785Z,1.10
2022-09-26T14:11:32.956Z,1.50
2022-09-26T14:14:18.489Z,1.10
2022-09-26T14:16:53.353Z,1.30
2022-09-26T14:19:39.525Z,1.33
2022-09-26T14:22:26.471Z,1.40
2022-09-26T14:24:54.501Z,1.27
2022-09-26T14:27:21.463Z,1.45
2022-09-26T14:29:53.206Z,1.20
2022-09-26T14:32:27.572Z,1.10
2022-09-26T14:34:54.838Z,1.00
2022-09-26T14:37:24.803Z,1.15
2022-09-26T14:40:00.684Z,1.40
2022-09-26T14:42:33.919Z,1.40
2022-09-26T14:45:05.406Z,1.23
2022-09-26T14:47:55.580Z,1.42
2022-09-26T14:50:31.495Z,1.38
2022-09-26T14:53:03.115Z,1.50
2022-09-26T14:55:31.266Z,1.60
2022-09-26T14:58:38.123Z,1.30
2022-09-26T15:01:05.950Z,1.40
2022-09-26T15:03:34.919Z,1.20
2022-09-26T15:06:05.878Z,1.88
2022-09-26T15:08:39.301Z,1.45
2022-09-26T15:11:07.766Z,1.70
2022-09-26T15:13:37.270Z,1.40
2022-09-26T15:16:16.310Z,1.20
2022-09-26T15:19:00.466Z,1.70
2022-09-26T15:21:37.028Z,1.50
2022-09-26T15:24:22.127Z,1.60
2022-09-26T15:26:50.365Z,1.15
2022-09-26T15:29:17.687Z,1.40
2022-09-26T15:31:46.552Z,1.30
2022-09-26T15:34:21.655Z,1.10
2022-09-26T15:36:56.821Z,1.33
2022-09-26T15:39:33.329Z,1.20
2022-09-26T15:42:37.384Z,1.52
2022-09-26T15:45:27.836Z,1.27
2022-09-26T15:47:56.893Z,1.17
2022-09-26T15:50:32.073Z,1.10
2022-09-26T15:53:17.839Z,0.93
2022-09-26T15:56:05.591Z,1.05
2022-09-26T15:58:51.202Z,1.00
2022-09-26T16:01:24.122Z,1.00
2022-09-26T16:04:13.701Z,0.90
2022-09-26T16:06:54.876Z,0.90
2022-09-26T16:09:34.037Z,0.77
2022-09-26T16:12:22.820Z,0.80
2022-09-26T16:15:00.286Z,0.70
2022-09-26T16:17:37.734Z,0.80
2022-09-26T16:20:13.933Z,0.60
2022-09-26T16:22:46.040Z,0.60
2022-09-26T16:25:16.154Z,0.80
2022-09-26T16:27:43.624Z,0.88
2022-09-26T16:30:29.028Z,1.05
2022-09-26T16:33:13.872Z,0.90
2022-09-26T16:35:48.569Z,1.20
2022-09-26T16:38:25.675Z,0.85
2022-09-26T16:40:55.291Z,0.93
2022-09-26T16:43:29.014Z,1.10
2022-09-26T16:46:18.141Z,0.90
2022-09-26T16:48:51.048Z,1.30
2022-09-26T16:51:21.554Z,1.40
2022-09-26T16:54:08.928Z,0.90
2022-09-26T16:56:40.609Z,1.02
2022-09-26T16:59:26.359Z,1.45
2022-09-26T17:01:56.622Z,1.50
2022-09-26T17:04:36.397Z,1.52
2022-09-26T17:07:16.489Z,1.20
2022-09-26T17:09:44.408Z,1.08
2022-09-26T17:12:21.536Z,1.20
2022-09-26T17:14:52.141Z,1.73
2022-09-26T17:17:22.211Z,1.98
2022-09-26T17:19:56.832Z,1.30
2022-09-26T17:22:26.876Z,1.27
2022-09-26T17:24:54.634Z,1.75
2022-09-26T17:27:34.435Z,1.60
2022-09-26T17:30:03.676Z,1.60
2022-09-26T17:32:38.839Z,1.38
2022-09-26T17:35:29.941Z,1.55
2022-09-26T17:37:57.169Z,1.25
2022-09-26T17:40:26.608Z,1.52
2022-09-26T17:42:59.621Z,1.17
2022-09-26T17:45:35.374Z,1.35
2022-09-26T17:48:12.434Z,1.20
2022-09-26T17:50:40.121Z,1.35
2022-09-26T17:53:11.003Z,1.50
2022-09-26T17:55:38.396Z,1.33
2022-09-26T17:58:07.997Z,1.67
2022-09-26T18:00:37.814Z,1.60
2022-09-26T18:03:08.126Z,1.35
2022-09-26T18:05:38.548Z,1.55
2022-09-26T18:08:15.598Z,1.40
2022-09-26T18:10:50.423Z,1.55
2022-09-26T18:13:22.998Z,1.50
2022-09-26T18:15:52.400Z,1.42
2022-09-26T18:18:22.072Z,1.40
2022-09-26T18:20:50.266Z,1.40
2022-09-26T18:23:21.218Z,1.65
2022-09-26T18:25:50.911Z,1.42
2022-09-26T18:28:21.142Z,1.60
2022-09-26T18:30:56.915Z,1.70
2022-09-26T18:33:25.804Z,1.35
2022-09-26T18:35:53.488Z,1.70
2022-09-26T18:38:21.064Z,1.70
2022-09-26T18:40:55.353Z,1.42
2022-09-26T18:43:24.367Z,1.50
2022-09-26T18:45:52.171Z,1.20
2022-09-26T18:48:19.269Z,1.20
2022-09-26T18:50:47.274Z,1.55
2022-09-26T18:53:20.221Z,1.10
2022-09-26T18:56:06.034Z,1.00
2022-09-26T18:58:34.607Z,1.15
2022-09-26T19:01:05.802Z,1.13
2022-09-26T19:03:46.158Z,1.40
2022-09-26T19:06:25.059Z,1.00
2022-09-26T19:09:05.331Z,1.00
2022-09-26T19:11:35.291Z,1.23
2022-09-26T19:14:26.719Z,1.20
2022-09-26T19:16:54.525Z,1.40
2022-09-26T19:19:22.286Z,1.33
2022-09-26T19:21:55.682Z,1.40
2022-09-26T19:24:38.561Z,1.85
2022-09-26T19:27:15.440Z,1.85
2022-09-26T19:29:52.942Z,1.63
2022-09-26T19:32:31.859Z,1.40
2022-09-26T19:35:02.173Z,1.30
2022-09-26T19:37:29.247Z,1.52
2022-09-26T19:39:58.040Z,1.65
2022-09-26T19:42:26.611Z,1.63
2022-09-26T19:44:53.689Z,1.75
2022-09-26T19:47:22.366Z,1.90
2022-09-26T19:49:51.712Z,2.50
2022-09-26T19:52:21.159Z,2.85
2022-09-26T19:54:48.988Z,2.50
2022-09-26T19:57:21.294Z,2.85
2022-09-26T19:59:49.297Z,2.53
2022-09-26T20:02:18.907Z,1.73
2022-09-26T20:04:46.188Z,1.80
2022-09-26T20:07:18.716Z,1.58
2022-09-26T20:09:46.608Z,1.80
2022-09-26T20:12:14.295Z,2.00
2022-09-26T20:14:41.567Z,1.98
2022-09-26T20:17:11.745Z,2.10
2022-09-26T20:19:41.813Z,1.90
2022-09-26T20:22:15.413Z,1.60
2022-09-26T20:27:18.162Z,2.10
2022-09-26T20:30:04.747Z,1.90
2022-09-26T20:32:31.981Z,1.65
2022-09-26T20:35:00.700Z,1.85
2022-09-26T20:37:32.852Z,1.75
2022-09-26T20:40:00.974Z,2.25
2022-09-26T20:42:33.567Z,1.50
2022-09-26T20:45:00.893Z,1.80
2022-09-26T20:47:27.975Z,1.90
2022-09-26T20:50:00.606Z,1.90
2022-09-26T20:52:29.601Z,2.22
2022-09-26T20:54:57.609Z,1.42
2022-09-26T20:57:25.013Z,1.95
2022-09-26T20:59:52.457Z,1.60
2022-09-26T21:02:32.555Z,1.70
2022-09-26T21:05:01.656Z,1.90
2022-09-26T21:07:31.495Z,1.50
2022-09-26T21:09:59.261Z,1.77
2022-09-26T21:12:26.240Z,2.03
2022-09-26T21:14:53.204Z,1.70
2022-09-26T21:17:28.910Z,1.80
2022-09-26T21:19:56.235Z,1.85
2022-09-26T21:22:27.157Z,1.60
2022-09-26T21:24:54.900Z,1.77
2022-09-26T21:27:21.906Z,1.65
2022-09-26T21:29:48.907Z,1.50
2022-09-26T21:32:19.675Z,1.65
2022-09-26T21:35:07.208Z,1.80
2022-09-26T21:37:35.156Z,1.90
2022-09-26T21:40:02.827Z,1.40
2022-09-26T21:42:29.884Z,1.48
2022-09-26T21:45:01.642Z,1.40
2022-09-26T21:47:28.642Z,1.75
2022-09-26T21:49:55.701Z,1.40
2022-09-26T21:52:28.848Z,1.45
2022-09-26T21:54:58.280Z,1.30
2022-09-26T21:57:31.930Z,1.98
2022-09-26T22:02:26.265Z,1.70
2022-09-26T22:04:53.529Z,1.60
2022-09-26T22:07:20.992Z,1.77
2022-09-26T22:09:48.092Z,1.40
2022-09-26T22:12:15.034Z,2.10
2022-09-26T22:14:42.096Z,1.48
2022-09-26T22:17:09.195Z,1.63
2022-09-26T22:19:36.373Z,1.65
2022-09-26T22:22:03.513Z,1.88
2022-09-26T22:24:30.664Z,1.27
2022-09-26T22:26:57.629Z,1.52
2022-09-26T22:29:24.627Z,1.50
2022-09-26T22:31:52.116Z,1.50
2022-09-26T22:34:20.394Z,1.70
2022-09-26T22:36:47.344Z,1.70
2022-09-26T22:39:14.411Z,1.67
2022-09-26T22:41:41.470Z,2.10
2022-09-26T22:44:08.614Z,1.95
2022-09-26T22:46:36.572Z,2.15
2022-09-26T22:49:03.662Z,1.52
2022-09-26T22:51:30.713Z,1.77
2022-09-26T22:53:57.796Z,2.10
2022-09-26T22:56:24.900Z,1.88
2022-09-26T22:58:52.691Z,1.70
2022-09-26T23:01:28.191Z,2.20
2022-09-26T23:03:55.731Z,1.90
2022-09-26T23:06:23.866Z,1.92
2022-09-26T23:08:51.234Z,2.10
2022-09-26T23:11:19.379Z,2.00
2022-09-26T23:13:47.088Z,1.92
2022-09-26T23:16:17.502Z,2.10
2022-09-26T23:18:44.989Z,2.22
2022-09-26T23:21:13.467Z,2.03
2022-09-26T23:23:44.024Z,2.00
2022-09-26T23:26:23.514Z,2.38
2022-09-26T23:28:52.427Z,2.15
2022-09-26T23:31:20.298Z,1.88
2022-09-26T23:33:48.029Z,2.60
2022-09-26T23:36:15.519Z,2.00
2022-09-26T23:38:42.614Z,1.88
2022-09-26T23:41:11.268Z,2.15
2022-09-26T23:43:39.031Z,2.05
2022-09-26T23:46:06.500Z,2.17
2022-09-26T23:48:34.131Z,2.03
2022-09-26T23:51:01.549Z,2.00
2022-09-26T23:53:28.828Z,2.10
2022-09-26T23:56:06.102Z,1.95
2022-09-26T23:58:33.586Z,2.03
